Patterson, Idaho
Current Conditions -  °F | °C
As of 10:55 PM on Tuesday 27 Jan 2015 (Local Time) from KLLJ Reporting Station
Overcast Overcast  
Wind Chill: 34°   Ceiling: 5500
Heat Index: 34°   Visibility: 8mi
Dew Point: 31°   Wind: 0mph
Humidity: 89%   Direction: NA
Pressure: 30.11"   Gusts: NA
Location:  44.6701°N, 113.812°W
Report Text: KLLJ 280555Z AUTO 00000KT 8SM BKN055 OVC070 01/M01 A3011 RMK AO2 RAB15E42 SLP211 P0000 60000 T00111006 10028 20006 53008
Loading
Personal Weather Stations






























Interactive Weather Map New forecast layout! Learn more

10-Day Weather Forecast

Advertisements
Track Severe Weather on mobile